Time;durP1;ratioP1;P1;durP2;ratioP2;P2;SDS_P1;SDS_P2;PMS_P1;PMS_P2;Temp;Humidity;BMP_temperature;BMP_pressure;BME280_temperature;BME280_humidity;BME280_pressure;Samples;Min_cycle;Max_cycle;Signal;HPM_P1;HPM_P2
2022/08/27 00:02:01;;;;;;;27.30;24.77;;;21.20;99.90;;;;;;10476807;28;20231;-77
2022/08/27 00:07:05;;;;;;;27.23;24.60;;;21.30;99.90;;;;;;10451897;28;20202;-79
2022/08/27 00:12:08;;;;;;;27.20;24.83;;;21.30;99.90;;;;;;10443275;28;20725;-78
2022/08/27 00:17:12;;;;;;;27.87;25.30;;;21.30;99.90;;;;;;10444329;28;20225;-77
2022/08/27 00:22:14;;;;;;;31.23;28.27;;;21.30;99.90;;;;;;10434133;28;20245;-78
2022/08/27 00:27:17;;;;;;;30.40;27.70;;;21.30;99.90;;;;;;10478457;28;20189;-79
2022/08/27 00:32:21;;;;;;;31.23;28.50;;;21.30;99.90;;;;;;10442312;28;20241;-79
2022/08/27 00:37:23;;;;;;;33.80;30.60;;;21.30;99.90;;;;;;10476507;28;20196;-77
2022/08/27 00:42:25;;;;;;;28.93;26.43;;;21.40;99.90;;;;;;10453303;28;20209;-79
2022/08/27 00:47:32;;;;;;;31.73;28.93;;;21.40;99.90;;;;;;10440028;28;20280;-77
2022/08/27 00:52:38;;;;;;;30.60;27.43;;;21.40;99.90;;;;;;10498240;28;20603;-78
2022/08/27 00:57:45;;;;;;;30.90;27.90;;;21.50;99.90;;;;;;10490675;28;20304;-77
2022/08/27 01:02:49;;;;;;;30.20;27.43;;;21.50;99.90;;;;;;10466122;28;20225;-78
2022/08/27 01:07:56;;;;;;;30.97;28.13;;;21.50;99.90;;;;;;10482416;28;20567;-80
2022/08/27 01:12:58;;;;;;;29.77;27.10;;;21.50;99.90;;;;;;10469618;28;20267;-77
2022/08/27 01:18:03;;;;;;;30.37;27.50;;;21.40;99.90;;;;;;10456023;28;20215;-76
2022/08/27 01:23:17;;;;;;;33.13;30.13;;;21.30;99.90;;;;;;10480264;28;20274;-79
2022/08/27 01:28:21;;;;;;;31.37;28.43;;;21.20;99.90;;;;;;10481342;28;20200;-79
2022/08/27 01:33:23;;;;;;;33.00;29.60;;;21.20;99.90;;;;;;10468674;28;20213;-79
2022/08/27 01:38:26;;;;;;;34.60;31.37;;;21.10;99.90;;;;;;10484699;28;20192;-79
2022/08/27 01:43:31;;;;;;;32.67;29.57;;;21.00;99.90;;;;;;10472501;28;20239;-78
2022/08/27 01:48:33;;;;;;;35.13;31.73;;;21.00;99.90;;;;;;10484872;28;20196;-79
2022/08/27 01:53:35;;;;;;;34.23;30.60;;;21.00;99.90;;;;;;10476712;28;20813;-78
2022/08/27 01:58:39;;;;;;;37.10;33.43;;;21.00;99.90;;;;;;10483004;28;20196;-78
2022/08/27 02:03:43;;;;;;;33.93;30.60;;;21.00;99.90;;;;;;10473021;28;20212;-78
2022/08/27 02:08:45;;;;;;;33.03;30.10;;;21.00;99.90;;;;;;10483441;28;20246;-78
2022/08/27 02:13:48;;;;;;;35.77;32.37;;;21.00;99.90;;;;;;10473499;28;20217;-78
2022/08/27 02:18:53;;;;;;;36.00;32.37;;;21.00;99.90;;;;;;10480690;28;20290;-79
2022/08/27 02:23:55;;;;;;;36.80;33.30;;;21.10;99.90;;;;;;10475362;28;20221;-78
2022/08/27 02:28:58;;;;;;;34.40;31.20;;;21.10;99.90;;;;;;10482555;28;20261;-79
2022/08/27 02:34:00;;;;;;;37.03;33.20;;;21.20;99.90;;;;;;10472332;28;20347;-77
2022/08/27 02:39:03;;;;;;;36.03;32.57;;;21.20;99.90;;;;;;10458319;28;20618;-79
2022/08/27 02:44:06;;;;;;;35.30;31.90;;;21.30;99.90;;;;;;10471869;28;20236;-79
2022/08/27 02:49:09;;;;;;;34.17;30.97;;;21.30;99.90;;;;;;10478298;28;20613;-78
2022/08/27 02:54:12;;;;;;;36.77;33.00;;;21.40;99.90;;;;;;10472660;28;20217;-78
2022/08/27 02:59:15;;;;;;;36.40;32.60;;;21.40;99.90;;;;;;10474516;28;20189;-77
2022/08/27 03:04:18;;;;;;;34.43;31.33;;;21.40;99.90;;;;;;10472605;28;20213;-78
2022/08/27 03:09:20;;;;;;;34.47;31.23;;;21.50;99.90;;;;;;10473258;28;20196;-77
2022/08/27 03:14:24;;;;;;;35.10;31.70;;;21.50;99.90;;;;;;10472618;28;20225;-79
2022/08/27 03:19:26;;;;;;;35.30;31.77;;;21.50;99.90;;;;;;10473564;28;20192;-80
2022/08/27 03:24:28;;;;;;;36.47;33.00;;;21.60;99.90;;;;;;10472069;28;20670;-81
2022/08/27 03:29:33;;;;;;;34.67;31.17;;;21.60;99.90;;;;;;10480784;28;20214;-79
2022/08/27 03:34:36;;;;;;;32.47;29.37;;;21.60;99.90;;;;;;10480644;28;20213;-78
2022/08/27 03:39:38;;;;;;;32.10;29.07;;;21.60;99.90;;;;;;10479807;28;20230;-79
2022/08/27 03:44:41;;;;;;;29.30;26.60;;;21.60;99.90;;;;;;10486654;28;20223;-79
2022/08/27 03:49:43;;;;;;;31.10;28.20;;;21.50;99.90;;;;;;10482524;28;20185;-79
2022/08/27 03:54:46;;;;;;;28.63;25.70;;;21.50;99.90;;;;;;10495043;28;20703;-79
2022/08/27 03:59:50;;;;;;;27.40;25.00;;;21.50;99.90;;;;;;10483046;28;20203;-79
2022/08/27 04:04:52;;;;;;;28.63;23.20;;;21.50;99.90;;;;;;10486230;28;21086;-79
2022/08/27 04:09:54;;;;;;;24.80;22.70;;;21.50;99.90;;;;;;10482326;28;20254;-79
2022/08/27 04:14:57;;;;;;;25.70;23.47;;;21.50;99.90;;;;;;10488870;28;20749;-79
2022/08/27 04:19:59;;;;;;;26.33;24.03;;;21.50;99.90;;;;;;10485454;28;20197;-79
2022/08/27 04:25:02;;;;;;;34.10;30.90;;;21.50;99.90;;;;;;10487650;28;20239;-81
2022/08/27 04:30:09;;;;;;;38.00;34.30;;;21.50;99.90;;;;;;10479011;28;20326;-79
2022/08/27 04:35:11;;;;;;;36.60;33.40;;;21.50;99.90;;;;;;10497921;28;20231;-79
2022/08/27 04:40:13;;;;;;;39.30;35.50;;;21.50;99.90;;;;;;10477559;28;20283;-79
2022/08/27 04:45:17;;;;;;;36.70;33.20;;;21.50;99.90;;;;;;10487870;28;20686;-79
2022/08/27 04:50:19;;;;;;;42.53;38.23;;;21.50;99.90;;;;;;10480156;28;20207;-79
2022/08/27 04:55:21;;;;;;;41.83;37.83;;;21.40;99.90;;;;;;10486442;28;20221;-79
2022/08/27 05:00:25;;;;;;;40.77;36.70;;;21.40;99.90;;;;;;10474187;28;20246;-79
2022/08/27 05:05:27;;;;;;;38.73;35.00;;;21.40;99.90;;;;;;10487179;28;20568;-79
2022/08/27 05:10:29;;;;;;;40.27;36.53;;;21.40;99.90;;;;;;10474801;28;20188;-79
2022/08/27 05:15:33;;;;;;;39.80;35.90;;;21.50;99.90;;;;;;10486742;28;20233;-79
2022/08/27 05:20:43;;;;;;;41.03;36.73;;;21.50;99.90;;;;;;10473156;28;20592;-79
2022/08/27 05:25:47;;;;;;;41.90;37.70;;;21.50;99.90;;;;;;10497926;28;20193;-79
2022/08/27 05:30:53;;;;;;;38.50;34.60;;;21.50;99.90;;;;;;10487215;28;20193;-79
2022/08/27 05:35:57;;;;;;;39.97;36.03;;;21.50;99.90;;;;;;10483065;28;20262;-79
2022/08/27 05:41:05;;;;;;;38.67;35.07;;;21.50;99.90;;;;;;10484085;28;20232;-79
2022/08/27 05:46:10;;;;;;;41.13;36.93;;;21.50;99.90;;;;;;10456920;28;20269;-79
2022/08/27 05:51:14;;;;;;;42.10;37.50;;;21.60;99.90;;;;;;10484061;28;20248;-79
2022/08/27 05:56:19;;;;;;;40.13;36.43;;;21.60;99.90;;;;;;10474136;28;20220;-79
2022/08/27 06:01:24;;;;;;;40.00;35.90;;;21.60;99.90;;;;;;10485381;28;20768;-79
2022/08/27 06:06:26;;;;;;;38.00;34.30;;;21.70;99.90;;;;;;10470798;28;20219;-79
2022/08/27 06:11:29;;;;;;;40.97;36.57;;;21.70;99.90;;;;;;10487430;28;20239;-79
2022/08/27 06:16:33;;;;;;;39.87;35.90;;;21.70;99.90;;;;;;10472156;28;20238;-79
2022/08/27 06:21:35;;;;;;;40.80;36.83;;;21.80;99.90;;;;;;10484170;28;20244;-79
2022/08/27 06:26:38;;;;;;;38.87;35.30;;;21.80;99.90;;;;;;10470188;28;20728;-79
2022/08/27 06:31:42;;;;;;;34.80;31.40;;;21.90;99.90;;;;;;10470012;28;20328;-79
2022/08/27 06:36:44;;;;;;;38.23;34.50;;;21.90;99.90;;;;;;10473229;28;20232;-79
2022/08/27 06:41:49;;;;;;;28.90;26.10;;;21.80;99.90;;;;;;10503828;28;20228;-79
2022/08/27 06:46:52;;;;;;;38.10;34.70;;;21.80;99.90;;;;;;10468146;28;20188;-79
2022/08/27 06:51:54;;;;;;;37.53;33.80;;;21.90;99.90;;;;;;10485438;28;20221;-79
2022/08/27 06:56:59;;;;;;;37.93;34.37;;;21.90;99.90;;;;;;10468324;28;20213;-80
2022/08/27 07:02:02;;;;;;;36.20;32.70;;;22.00;99.90;;;;;;10490287;28;20209;-79
2022/08/27 07:07:04;;;;;;;36.80;33.10;;;22.00;99.90;;;;;;10479087;28;20212;-79
2022/08/27 07:12:07;;;;;;;37.03;33.63;;;22.00;99.90;;;;;;10492963;28;20278;-79
2022/08/27 07:17:10;;;;;;;36.40;33.20;;;22.00;99.90;;;;;;10474251;28;20212;-79
2022/08/27 07:22:13;;;;;;;40.20;36.20;;;22.00;99.90;;;;;;10501112;28;20221;-79
2022/08/27 07:27:15;;;;;;;36.90;33.50;;;22.10;99.90;;;;;;10481882;28;20675;-78
2022/08/27 07:32:18;;;;;;;33.17;30.23;;;22.20;99.90;;;;;;10497309;28;20224;-79
2022/08/27 07:37:21;;;;;;;33.30;30.20;;;22.20;99.90;;;;;;10473189;28;20612;-79
2022/08/27 07:47:43;;;;;;;35.00;31.77;;;22.30;99.90;;;;;;10473725;28;20737;-79
2022/08/27 07:52:46;;;;;;;35.87;32.57;;;22.30;99.90;;;;;;10493026;28;20642;-79
2022/08/27 07:57:48;;;;;;;35.13;31.73;;;22.30;99.90;;;;;;10473052;28;20286;-79
2022/08/27 08:02:51;;;;;;;37.43;33.70;;;22.30;99.90;;;;;;10496643;28;20722;-79
2022/08/27 08:07:53;;;;;;;34.67;31.60;;;22.40;99.90;;;;;;10494121;28;20197;-79
2022/08/27 08:12:55;;;;;;;36.30;33.10;;;22.30;99.90;;;;;;10471341;28;20700;-79
2022/08/27 08:17:59;;;;;;;35.93;32.13;;;22.30;99.90;;;;;;10495699;28;20217;-79
2022/08/27 08:23:01;;;;;;;38.03;34.03;;;22.30;99.90;;;;;;10471397;28;20204;-79
2022/08/27 08:28:04;;;;;;;36.10;32.60;;;22.30;99.90;;;;;;10476753;28;20195;-79
2022/08/27 08:33:07;;;;;;;37.63;34.03;;;22.30;99.90;;;;;;10494165;28;20231;-79
2022/08/27 08:38:09;;;;;;;39.77;35.57;;;22.30;99.90;;;;;;10470666;28;20216;-79
2022/08/27 08:43:24;;;;;;;36.90;33.50;;;22.20;99.90;;;;;;10496782;28;20239;-79
2022/08/27 08:48:29;;;;;;;40.17;35.93;;;22.20;99.90;;;;;;10474182;28;20185;-79
2022/08/27 08:53:43;;;;;;;39.93;36.20;;;22.20;99.90;;;;;;10489248;28;20684;-79
2022/08/27 08:58:49;;;;;;;39.53;35.60;;;22.20;99.90;;;;;;10441784;28;20227;-79
2022/08/27 09:03:56;;;;;;;40.53;36.57;;;22.10;99.90;;;;;;10493719;28;20681;-79
2022/08/27 09:09:03;;;;;;;42.87;38.27;;;22.00;99.90;;;;;;10473100;28;20184;-79
2022/08/27 09:14:14;;;;;;;39.43;35.63;;;22.00;99.90;;;;;;10497004;28;20221;-79
2022/08/27 09:19:17;;;;;;;40.03;36.43;;;22.00;99.90;;;;;;10471955;28;20196;-80
2022/08/27 09:24:26;;;;;;;39.60;36.00;;;22.00;99.90;;;;;;10488474;28;20295;-79
2022/08/27 09:29:30;;;;;;;38.93;35.60;;;21.90;99.90;;;;;;10472175;28;20281;-80
2022/08/27 09:34:38;;;;;;;32.57;30.00;;;21.70;99.90;;;;;;10489589;28;20221;-80
2022/08/27 09:39:47;;;;;;;30.13;27.63;;;21.70;99.90;;;;;;10473922;28;20196;-80
2022/08/27 09:44:49;;;;;;;29.70;27.47;;;21.60;99.90;;;;;;10490058;28;20297;-80
2022/08/27 09:50:03;;;;;;;30.33;27.87;;;21.50;99.90;;;;;;10469467;28;20228;-81
2022/08/27 09:55:07;;;;;;;32.30;29.70;;;21.50;99.90;;;;;;10484347;28;20312;-77
2022/08/27 10:00:15;;;;;;;30.27;27.97;;;21.40;99.90;;;;;;10449048;28;20225;-79
2022/08/27 10:05:27;;;;;;;29.20;26.80;;;21.40;99.90;;;;;;10434754;28;20597;-78
2022/08/27 10:10:53;;;;;;;31.50;29.17;;;21.50;99.90;;;;;;10448235;28;20196;-80
2022/08/27 10:16:37;;;;;;;31.63;29.10;;;21.40;99.90;;;;;;10480745;28;20696;-80
2022/08/27 10:21:47;;;;;;;31.77;29.37;;;21.40;99.90;;;;;;10464010;28;20211;-80
2022/08/27 10:26:57;;;;;;;31.40;28.90;;;21.40;99.90;;;;;;10496284;28;20262;-80
2022/08/27 10:32:11;;;;;;;30.07;27.97;;;21.50;99.90;;;;;;10472875;28;20228;-79
2022/08/27 10:37:27;;;;;;;34.37;31.80;;;21.60;99.90;;;;;;10489433;28;20250;-78
2022/08/27 10:42:35;;;;;;;37.37;34.37;;;21.60;99.90;;;;;;10488246;28;20247;-78
2022/08/27 10:47:50;;;;;;;38.67;35.37;;;21.70;99.90;;;;;;10486374;28;20224;-79
2022/08/27 10:52:59;;;;;;;35.23;32.20;;;21.70;99.90;;;;;;10475685;28;20217;-78
2022/08/27 10:58:10;;;;;;;38.10;34.83;;;21.70;99.90;;;;;;10496407;28;20322;-78
2022/08/27 11:03:25;;;;;;;35.80;32.60;;;21.70;99.90;;;;;;10479513;28;20213;-78
2022/08/27 11:08:36;;;;;;;37.77;34.47;;;21.70;99.90;;;;;;10497436;28;20275;-78
2022/08/27 11:13:45;;;;;;;40.60;36.80;;;21.80;99.90;;;;;;10472678;28;20604;-78
2022/08/27 11:18:51;;;;;;;37.70;34.30;;;21.80;99.90;;;;;;10495068;28;20224;-78
2022/08/27 11:24:01;;;;;;;39.13;35.60;;;21.90;99.90;;;;;;10471066;28;20220;-78
2022/08/27 11:29:10;;;;;;;37.17;33.80;;;22.00;99.90;;;;;;10496122;28;20203;-76
2022/08/27 11:34:22;;;;;;;38.63;35.40;;;22.00;99.90;;;;;;10464390;28;20267;-78
2022/08/27 11:39:44;;;;;;;35.37;32.27;;;22.00;99.90;;;;;;10492313;28;20220;-77
2022/08/27 11:44:56;;;;;;;39.33;35.90;;;22.00;99.90;;;;;;10463046;28;20684;-79
2022/08/27 11:50:01;;;;;;;36.73;33.43;;;22.00;99.90;;;;;;10499300;28;20200;-79
2022/08/27 11:55:23;;;;;;;38.17;34.97;;;22.00;99.90;;;;;;10465109;28;20224;-80
2022/08/27 12:00:32;;;;;;;36.17;33.10;;;22.00;99.90;;;;;;10499285;28;20195;-79
2022/08/27 12:05:41;;;;;;;37.47;34.27;;;22.00;99.90;;;;;;10421845;28;20703;-78
2022/08/27 12:10:58;;;;;;;37.90;34.47;;;22.10;99.90;;;;;;10415922;28;20273;-78
2022/08/27 12:16:11;;;;;;;37.07;33.90;;;22.20;99.90;;;;;;10417249;28;20209;-78
2022/08/27 12:21:19;;;;;;;35.23;32.23;;;22.40;99.90;;;;;;10494014;28;20263;-76
2022/08/27 12:26:32;;;;;;;36.27;32.80;;;22.50;99.90;;;;;;10457109;28;20222;-79
2022/08/27 12:31:35;;;;;;;32.70;30.10;;;22.60;99.90;;;;;;10492513;28;20231;-78
2022/08/27 12:36:37;;;;;;;33.73;30.53;;;22.80;99.90;;;;;;10457687;28;20235;-77
2022/08/27 12:41:45;;;;;;;34.73;31.73;;;22.80;99.90;;;;;;10445271;28;20208;-78
2022/08/27 12:46:49;;;;;;;36.43;33.33;;;22.90;99.90;;;;;;10499474;28;20263;-79
2022/08/27 12:51:52;;;;;;;36.43;33.07;;;22.90;99.90;;;;;;10500524;28;20213;-78
2022/08/27 12:57:02;;;;;;;34.40;31.53;;;22.90;99.90;;;;;;10478404;28;20240;-79
2022/08/27 13:02:21;;;;;;;33.50;30.60;;;22.90;99.90;;;;;;10497324;28;20227;-78
2022/08/27 13:07:27;;;;;;;34.67;31.30;;;22.90;99.90;;;;;;10463834;28;20197;-78
2022/08/27 13:12:30;;;;;;;34.20;31.10;;;23.00;99.90;;;;;;10494147;28;20696;-78
2022/08/27 13:17:38;;;;;;;32.70;29.90;;;23.00;99.90;;;;;;10464696;28;20220;-79
2022/08/27 13:22:42;;;;;;;33.03;30.13;;;23.00;99.90;;;;;;10494178;28;20630;-78
2022/08/27 13:27:53;;;;;;;37.97;34.47;;;23.10;99.90;;;;;;10453275;28;20284;-79
2022/08/27 13:32:56;;;;;;;34.63;31.67;;;23.10;99.90;;;;;;10444929;28;20224;-80
2022/08/27 13:37:59;;;;;;;31.20;28.57;;;23.20;99.90;;;;;;10450145;28;20724;-81
2022/08/27 13:43:10;;;;;;;32.33;29.53;;;23.30;99.90;;;;;;10451319;28;20213;-78
2022/08/27 13:48:13;;;;;;;31.60;28.80;;;23.30;99.90;;;;;;10436515;28;20194;-80
2022/08/27 13:58:42;;;;;;;24.87;22.53;;;23.60;99.90;;;;;;10453951;28;20219;-80
2022/08/27 14:03:50;;;;;;;26.87;24.23;;;23.80;99.90;;;;;;10523224;22;20278;-82
2022/08/27 14:08:53;;;;;;;23.13;21.07;;;23.90;99.90;;;;;;10489157;28;20667;-82
2022/08/27 14:13:57;;;;;;;25.57;23.27;;;24.00;99.90;;;;;;10496388;28;20685;-82
2022/08/27 14:19:06;;;;;;;26.00;22.50;;;24.00;99.90;;;;;;10461251;28;20292;-82
2022/08/27 14:24:08;;;;;;;25.60;23.20;;;24.10;99.90;;;;;;10456473;28;20220;-82
2022/08/27 14:29:12;;;;;;;26.17;23.80;;;24.00;99.90;;;;;;10464163;28;20243;-82
2022/08/27 14:34:15;;;;;;;26.00;23.70;;;23.90;99.90;;;;;;10476394;28;20208;-82
2022/08/27 14:39:17;;;;;;;23.40;21.50;;;23.70;99.90;;;;;;10454884;28;20228;-82
2022/08/27 14:44:22;;;;;;;24.07;21.77;;;23.70;99.90;;;;;;10481969;28;20224;-82
2022/08/27 14:49:29;;;;;;;25.23;22.93;;;23.60;99.90;;;;;;10472310;28;20239;-82
2022/08/27 14:54:32;;;;;;;28.73;26.23;;;23.60;99.90;;;;;;10467348;28;20248;-82
2022/08/27 14:59:36;;;;;;;25.20;23.00;;;23.60;99.90;;;;;;10466439;28;20275;-82
2022/08/27 15:04:38;;;;;;;26.83;24.50;;;23.60;99.90;;;;;;10456146;28;20228;-82
2022/08/27 15:09:40;;;;;;;28.73;26.10;;;23.50;99.90;;;;;;10448818;28;20645;-82
2022/08/27 15:14:44;;;;;;;25.73;23.20;;;23.50;99.90;;;;;;10473155;28;20220;-82
2022/08/27 15:19:46;;;;;;;26.97;24.50;;;23.50;99.90;;;;;;10459740;28;20245;-82
2022/08/27 15:24:51;;;;;;;26.60;24.20;;;23.40;99.90;;;;;;10463565;28;20219;-82
2022/08/27 15:29:55;;;;;;;29.70;27.00;;;23.40;99.90;;;;;;10480620;28;20188;-82
2022/08/27 15:34:58;;;;;;;26.67;24.50;;;23.50;99.90;;;;;;10469030;28;20216;-82
2022/08/27 15:40:01;;;;;;;28.83;25.17;;;23.50;99.90;;;;;;10474589;28;20225;-82
2022/08/27 15:45:05;;;;;;;27.23;24.83;;;23.50;99.90;;;;;;10471879;28;20599;-82
2022/08/27 15:50:08;;;;;;;28.93;26.47;;;23.50;99.90;;;;;;10451820;28;20640;-82
2022/08/27 15:55:21;;;;;;;29.63;26.57;;;23.50;99.90;;;;;;10481899;28;20221;-82
2022/08/27 16:00:26;;;;;;;27.77;25.13;;;23.40;99.90;;;;;;10461174;28;20231;-82
2022/08/27 16:05:34;;;;;;;25.00;23.00;;;23.30;99.90;;;;;;10469186;28;20224;-82
2022/08/27 16:10:37;;;;;;;29.47;26.97;;;23.30;99.90;;;;;;10477257;28;20283;-82
2022/08/27 16:15:41;;;;;;;28.53;25.93;;;23.20;99.90;;;;;;10457176;28;20243;-82
2022/08/27 16:20:44;;;;;;;28.97;26.47;;;23.20;99.90;;;;;;10464572;28;20228;-82
2022/08/27 16:25:46;;;;;;;30.97;27.80;;;23.10;99.90;;;;;;10483255;28;20223;-83
2022/08/27 16:30:52;;;;;;;28.50;26.20;;;23.10;99.90;;;;;;10494586;28;20208;-82
2022/08/27 16:35:54;;;;;;;29.77;27.30;;;23.00;99.90;;;;;;10469039;28;20213;-81
2022/08/27 16:40:56;;;;;;;30.20;27.60;;;23.00;99.90;;;;;;10475319;28;20196;-82
2022/08/27 16:46:01;;;;;;;28.40;26.03;;;23.00;99.90;;;;;;10471875;28;20204;-82
2022/08/27 16:51:15;;;;;;;30.60;27.97;;;23.00;99.90;;;;;;10474979;28;20217;-82
2022/08/27 16:56:19;;;;;;;32.80;29.83;;;23.00;99.90;;;;;;10468176;28;20323;-82
2022/08/27 17:01:24;;;;;;;35.43;32.30;;;23.00;99.90;;;;;;10468266;28;20200;-82
2022/08/27 17:06:27;;;;;;;33.37;30.20;;;23.10;99.90;;;;;;10467305;28;20235;-82
2022/08/27 17:11:30;;;;;;;36.93;33.53;;;22.90;99.90;;;;;;10462566;28;20610;-82
2022/08/27 17:16:35;;;;;;;35.23;31.87;;;22.90;99.90;;;;;;10450565;28;20232;-82
2022/08/27 17:21:38;;;;;;;33.47;30.27;;;22.80;99.90;;;;;;10471269;28;20549;-82
2022/08/27 17:26:40;;;;;;;35.10;31.87;;;22.70;99.90;;;;;;10467153;28;20684;-83
2022/08/27 17:31:43;;;;;;;37.53;34.07;;;22.70;99.90;;;;;;10465065;28;20196;-82
2022/08/27 17:36:46;;;;;;;37.67;33.77;;;22.60;99.90;;;;;;10466914;28;20212;-82
2022/08/27 17:41:50;;;;;;;37.83;34.13;;;22.60;99.90;;;;;;10468756;28;20195;-81
2022/08/27 17:46:55;;;;;;;37.73;34.33;;;22.50;99.90;;;;;;10472688;28;20222;-82
2022/08/27 17:52:00;;;;;;;35.87;32.67;;;22.40;99.90;;;;;;10468849;28;20884;-82
2022/08/27 17:57:06;;;;;;;36.97;33.67;;;22.30;99.90;;;;;;10461713;28;20224;-82
2022/08/27 18:02:14;;;;;;;37.10;33.30;;;22.20;99.90;;;;;;10466111;28;20570;-82
2022/08/27 18:07:16;;;;;;;37.83;34.50;;;22.10;99.90;;;;;;10465396;28;20212;-82
2022/08/27 18:12:21;;;;;;;37.07;33.63;;;22.10;99.90;;;;;;10466267;28;20346;-81
2022/08/27 18:17:24;;;;;;;38.07;34.50;;;22.10;99.90;;;;;;10466121;28;20213;-82
2022/08/27 18:22:27;;;;;;;35.60;32.20;;;22.00;99.90;;;;;;10470288;28;20223;-82
2022/08/27 18:27:32;;;;;;;40.67;36.80;;;21.90;99.90;;;;;;10460358;28;20231;-82
2022/08/27 18:32:36;;;;;;;38.90;35.60;;;21.80;99.90;;;;;;10476223;28;20212;-82
2022/08/27 18:37:38;;;;;;;37.90;34.17;;;21.70;99.90;;;;;;10468716;28;20566;-82
2022/08/27 18:42:40;;;;;;;37.13;33.73;;;21.70;99.90;;;;;;10477878;28;20218;-82
2022/08/27 18:47:45;;;;;;;29.63;26.60;;;21.60;99.90;;;;;;10470833;28;20615;-81
2022/08/27 18:52:49;;;;;;;38.37;34.67;;;21.60;99.90;;;;;;10479126;28;20723;-82
2022/08/27 18:57:51;;;;;;;38.10;34.50;;;21.60;99.90;;;;;;10462854;28;20201;-82
2022/08/27 19:02:56;;;;;;;37.27;33.47;;;21.60;99.90;;;;;;10444958;28;20620;-81
2022/08/27 19:07:58;;;;;;;38.87;34.93;;;21.50;99.90;;;;;;10460278;28;20196;-81
2022/08/27 19:13:00;;;;;;;36.87;33.47;;;21.40;99.90;;;;;;10454720;28;20275;-81
2022/08/27 19:18:04;;;;;;;36.97;33.47;;;21.40;99.90;;;;;;10459608;28;20270;-81
2022/08/27 19:23:10;;;;;;;38.80;35.10;;;21.30;99.90;;;;;;10482537;28;20227;-81
2022/08/27 19:28:12;;;;;;;35.93;32.73;;;21.30;99.90;;;;;;10460104;28;20197;-81
2022/08/27 19:33:15;;;;;;;37.13;33.80;;;21.20;99.90;;;;;;10464620;28;20232;-81
2022/08/27 19:38:17;;;;;;;35.53;32.23;;;21.10;99.90;;;;;;10453554;28;20213;-81
2022/08/27 19:43:19;;;;;;;38.13;34.67;;;21.10;99.90;;;;;;10472295;28;20229;-81
2022/08/27 19:48:23;;;;;;;37.77;34.17;;;21.00;99.90;;;;;;10464357;28;20193;-82
2022/08/27 19:53:25;;;;;;;38.07;34.67;;;21.00;99.90;;;;;;10428353;28;20228;-81
2022/08/27 19:58:27;;;;;;;37.87;34.17;;;21.00;99.90;;;;;;10485217;28;20319;-82
2022/08/27 20:03:31;;;;;;;40.73;36.80;;;21.00;99.90;;;;;;10452458;28;20228;-81
2022/08/27 20:08:33;;;;;;;39.07;35.63;;;20.90;99.90;;;;;;10465810;28;20193;-81
2022/08/27 20:13:35;;;;;;;40.83;36.97;;;20.90;99.90;;;;;;10489558;28;20224;-81
2022/08/27 20:18:38;;;;;;;39.17;35.37;;;20.90;99.90;;;;;;10463651;28;20223;-81
2022/08/27 20:23:41;;;;;;;40.57;36.57;;;20.90;99.90;;;;;;10462001;28;20231;-81
2022/08/27 20:28:43;;;;;;;38.33;34.87;;;20.80;99.90;;;;;;10446525;28;20209;-80
2022/08/27 20:33:46;;;;;;;39.40;35.60;;;20.80;99.90;;;;;;10454062;28;20286;-80
2022/08/27 20:38:48;;;;;;;40.67;36.37;;;20.80;99.90;;;;;;10459732;28;20213;-80
2022/08/27 20:43:53;;;;;;;40.80;37.10;;;20.80;99.90;;;;;;10466801;28;20223;-80
2022/08/27 20:48:58;;;;;;;37.93;34.13;;;20.80;99.90;;;;;;10451692;28;20713;-79
2022/08/27 20:54:00;;;;;;;38.73;35.13;;;20.80;99.90;;;;;;10456573;28;20588;-80
2022/08/27 21:04:23;;;;;;;39.13;35.27;;;20.80;99.90;;;;;;10457398;28;20217;-79
2022/08/27 21:09:26;;;;;;;39.90;36.00;;;20.80;99.90;;;;;;10452900;28;20680;-80
2022/08/27 21:14:28;;;;;;;38.73;35.30;;;20.70;99.90;;;;;;10470496;28;20668;-80
2022/08/27 21:19:31;;;;;;;39.80;36.13;;;20.80;99.90;;;;;;10468797;28;20206;-80
2022/08/27 21:24:34;;;;;;;42.60;38.70;;;20.80;99.90;;;;;;10486296;28;20262;-80
2022/08/27 21:29:36;;;;;;;42.17;38.00;;;20.80;99.90;;;;;;10465590;28;20281;-80
2022/08/27 21:34:40;;;;;;;38.03;34.53;;;20.90;99.90;;;;;;10473725;28;20244;-81
2022/08/27 21:39:43;;;;;;;40.47;36.57;;;20.90;99.90;;;;;;10461860;28;20213;-80
2022/08/27 21:44:45;;;;;;;40.47;36.60;;;20.90;99.90;;;;;;10454516;28;20213;-81
2022/08/27 21:50:19;;;;;;;41.00;37.20;;;20.80;99.90;;;;;;10421268;28;20292;-80
2022/08/27 21:55:22;;;;;;;41.43;37.70;;;20.80;99.90;;;;;;10446046;28;20335;-81
2022/08/27 22:00:41;;;;;;;42.87;38.77;;;20.80;99.90;;;;;;10438540;28;20493;-81
2022/08/27 22:05:45;;;;;;;47.23;42.37;;;20.80;99.90;;;;;;10418667;28;20221;-81
2022/08/27 22:10:51;;;;;;;40.63;36.63;;;20.90;99.90;;;;;;10495586;28;20674;-81
2022/08/27 22:15:56;;;;;;;40.43;36.90;;;20.90;99.90;;;;;;10441780;28;20229;-81
2022/08/27 22:21:00;;;;;;;41.50;37.50;;;20.90;99.90;;;;;;10480648;28;20248;-81
2022/08/27 22:26:03;;;;;;;39.97;35.90;;;20.90;99.90;;;;;;10454345;28;20225;-81
2022/08/27 22:31:06;;;;;;;34.90;31.83;;;20.90;99.90;;;;;;10476749;28;20288;-81
2022/08/27 22:36:10;;;;;;;37.03;33.40;;;20.90;99.90;;;;;;10454999;28;20220;-81
2022/08/27 22:41:13;;;;;;;35.13;31.73;;;20.90;99.90;;;;;;10476122;28;20606;-81
2022/08/27 22:46:18;;;;;;;35.67;32.27;;;20.90;99.90;;;;;;10437311;28;20723;-81
2022/08/27 22:51:21;;;;;;;33.90;30.80;;;20.90;99.90;;;;;;10496873;28;20197;-81
2022/08/27 22:56:23;;;;;;;32.63;29.73;;;20.90;99.90;;;;;;10452788;28;20304;-81
2022/08/27 23:01:26;;;;;;;32.20;29.20;;;20.80;99.90;;;;;;10498005;28;20216;-81
2022/08/27 23:06:30;;;;;;;30.67;27.87;;;20.80;99.90;;;;;;10455810;28;20312;-81
2022/08/27 23:11:32;;;;;;;31.70;28.43;;;20.80;99.90;;;;;;10496933;28;20284;-81
2022/08/27 23:16:35;;;;;;;29.73;26.83;;;20.80;99.90;;;;;;10453221;28;20626;-81
2022/08/27 23:21:41;;;;;;;30.30;27.37;;;20.80;99.90;;;;;;10500380;28;20212;-81
2022/08/27 23:32:04;;;;;;;28.90;26.27;;;20.70;99.90;;;;;;10398412;28;20213;-81
2022/08/27 23:37:08;;;;;;;28.80;26.20;;;20.60;99.90;;;;;;10494813;28;20197;-81
2022/08/27 23:42:10;;;;;;;29.47;26.77;;;20.60;99.90;;;;;;10455068;28;20634;-81
2022/08/27 23:47:13;;;;;;;28.23;25.73;;;20.60;99.90;;;;;;10487311;28;20199;-81
2022/08/27 23:52:16;;;;;;;27.43;24.73;;;20.70;99.90;;;;;;10403844;28;20198;-81
2022/08/27 23:57:18;;;;;;;27.57;25.17;;;20.70;99.90;;;;;;10472825;28;20201;-81
